Time;durP1;ratioP1;P1;durP2;ratioP2;P2;SDS_P1;SDS_P2;PMS_P1;PMS_P2;Temp;Humidity;BMP_temperature;BMP_pressure;BME280_temperature;BME280_humidity;BME280_pressure;Samples;Min_cycle;Max_cycle;Signal;HPM_P1;HPM_P2
2023/04/09 00:02:04;;;;;;;;;;;;;;;20.47;39.71;102629.44;4962824;28;19933;-71
2023/04/09 00:04:29;;;;;;;;;;;;;;;20.47;39.86;102625.88;4967148;28;20004;-71
2023/04/09 00:06:54;;;;;;;;;;;;;;;20.47;39.52;102628.56;4965555;28;19911;-71
2023/04/09 00:09:19;;;;;;;;;;;;;;;20.45;39.60;102626.00;4966670;28;20018;-70
2023/04/09 00:11:45;;;;;;;;;;;;;;;20.44;39.77;102624.31;4959769;28;19910;-71
2023/04/09 00:14:10;;;;;;;;;;;;;;;20.43;39.69;102628.00;4977490;28;19969;-71
2023/04/09 00:16:35;;;;;;;;;;;;;;;20.42;39.58;102617.31;4958770;28;19914;-71
2023/04/09 00:19:00;;;;;;;;;;;;;;;20.42;39.59;102628.97;4971077;28;19910;-71
2023/04/09 00:21:26;;;;;;;;;;;;;;;20.41;39.84;102627.28;4966670;28;19918;-71
2023/04/09 00:23:51;;;;;;;;;;;;;;;20.40;39.65;102628.28;4961256;28;19922;-71
2023/04/09 00:26:16;;;;;;;;;;;;;;;20.38;39.75;102624.84;4972713;28;19921;-70
2023/04/09 00:28:41;;;;;;;;;;;;;;;20.38;39.71;102618.59;4961528;28;19953;-71
2023/04/09 00:31:06;;;;;;;;;;;;;;;20.37;40.03;102614.19;4963076;28;19915;-71
2023/04/09 00:33:32;;;;;;;;;;;;;;;20.36;39.67;102616.03;4966001;28;19910;-71
2023/04/09 00:35:57;;;;;;;;;;;;;;;20.34;39.68;102612.59;4966096;28;19921;-70
2023/04/09 00:38:22;;;;;;;;;;;;;;;20.33;39.95;102613.59;4962217;28;19926;-71
2023/04/09 00:40:48;;;;;;;;;;;;;;;20.32;39.72;102606.50;4969538;28;19911;-71
2023/04/09 00:43:13;;;;;;;;;;;;;;;20.32;39.75;102605.63;4962274;28;19910;-71
2023/04/09 00:45:38;;;;;;;;;;;;;;;20.31;39.72;102607.50;4961683;28;19918;-70
2023/04/09 00:48:03;;;;;;;;;;;;;;;20.30;39.66;102604.91;4974533;28;19922;-71
2023/04/09 00:50:28;;;;;;;;;;;;;;;20.29;40.01;102606.75;4955278;28;19933;-71
2023/04/09 00:52:54;;;;;;;;;;;;;;;20.28;39.90;102605.06;4969293;28;19949;-71
2023/04/09 00:55:19;;;;;;;;;;;;;;;20.27;40.02;102606.06;4963549;28;19921;-70
2023/04/09 00:57:44;;;;;;;;;;;;;;;20.25;39.61;102599.06;4961990;28;19973;-71
2023/04/09 01:00:11;;;;;;;;;;;;;;;20.24;40.05;102598.22;4968695;28;20379;-71
2023/04/09 01:02:37;;;;;;;;;;;;;;;20.24;39.81;102598.22;4963988;28;19924;-71
2023/04/09 01:05:02;;;;;;;;;;;;;;;20.22;39.93;102598.38;4958858;28;19954;-71
2023/04/09 01:07:36;;;;;;;;;;;;;;;20.21;39.71;102599.31;4964431;28;19918;-70
2023/04/09 01:10:04;;;;;;;;;;;;;;;20.22;39.76;102594.81;4965257;28;19918;-70
2023/04/09 01:12:48;;;;;;;;;;;;;;;20.20;40.01;102589.53;4959120;28;19911;-71
2023/04/09 01:15:14;;;;;;;;;;;;;;;20.19;40.04;102590.53;4969822;28;19956;-70
2023/04/09 01:17:43;;;;;;;;;;;;;;;20.19;39.76;102589.66;4965554;28;19911;-71
2023/04/09 01:20:19;;;;;;;;;;;;;;;20.17;39.96;102587.09;4973971;28;19918;-70
2023/04/09 01:22:48;;;;;;;;;;;;;;;20.17;39.81;102584.38;4963254;28;20001;-71
2023/04/09 01:25:33;;;;;;;;;;;;;;;20.16;39.78;102589.94;4964993;28;19982;-71
2023/04/09 01:28:10;;;;;;;;;;;;;;;20.16;39.80;102581.84;4963452;28;19925;-71
2023/04/09 01:30:35;;;;;;;;;;;;;;;20.14;39.81;102578.44;4964651;28;19982;-71
2023/04/09 01:33:00;;;;;;;;;;;;;;;20.13;39.81;102582.09;4962645;28;19910;-70
2023/04/09 01:35:25;;;;;;;;;;;;;;;20.13;40.02;102579.41;4966342;28;19981;-71
2023/04/09 01:37:51;;;;;;;;;;;;;;;20.12;40.06;102583.94;4966404;28;19926;-71
2023/04/09 01:40:16;;;;;;;;;;;;;;;20.11;39.86;102578.69;4960916;28;19918;-71
2023/04/09 01:42:41;;;;;;;;;;;;;;;20.11;39.87;102584.09;4968880;28;19953;-71
2023/04/09 01:45:07;;;;;;;;;;;;;;;20.09;40.00;102578.84;4953097;28;19914;-71
2023/04/09 01:47:32;;;;;;;;;;;;;;;20.09;40.11;102583.34;4972018;28;19919;-71
2023/04/09 01:49:57;;;;;;;;;;;;;;;20.08;40.02;102576.25;4960197;28;20005;-70
2023/04/09 01:52:22;;;;;;;;;;;;;;;20.07;39.94;102579.97;4966805;28;19914;-71
2023/04/09 01:54:47;;;;;;;;;;;;;;;20.06;39.90;102572.84;4970381;28;19910;-70
2023/04/09 01:57:12;;;;;;;;;;;;;;;20.05;39.90;102573.81;4964610;28;19910;-71
2023/04/09 01:59:38;;;;;;;;;;;;;;;20.04;40.10;102572.13;4961542;28;19913;-70
2023/04/09 02:02:15;;;;;;;;;;;;;;;20.04;40.22;102572.13;4968417;28;20347;-70
2023/04/09 02:04:43;;;;;;;;;;;;;;;20.02;39.96;102569.56;4961039;28;19917;-70
2023/04/09 02:07:20;;;;;;;;;;;;;;;20.01;40.00;102575.97;4968165;28;19938;-70
2023/04/09 02:09:45;;;;;;;;;;;;;;;20.00;40.15;102576.06;4966603;28;19921;-69
2023/04/09 02:12:11;;;;;;;;;;;;;;;19.99;39.94;102575.22;4964972;28;19915;-70
2023/04/09 02:14:36;;;;;;;;;;;;;;;19.98;40.04;102577.06;4974466;28;19913;-70
2023/04/09 02:17:02;;;;;;;;;;;;;;;19.97;40.07;102571.81;4972083;28;19937;-72
2023/04/09 02:19:46;;;;;;;;;;;;;;;19.95;39.92;102566.53;4968067;28;19917;-70
2023/04/09 02:22:12;;;;;;;;;;;;;;;19.95;40.11;102571.09;4968693;28;20627;-70
2023/04/09 02:24:37;;;;;;;;;;;;;;;19.93;39.84;102565.84;4966693;28;19910;-70
2023/04/09 02:27:03;;;;;;;;;;;;;;;19.93;40.27;102568.53;4967153;28;19910;-71
2023/04/09 02:29:28;;;;;;;;;;;;;;;19.93;40.03;102573.09;4970896;28;19925;-70
2023/04/09 02:31:54;;;;;;;;;;;;;;;19.91;39.98;102565.09;4966095;28;19935;-69
2023/04/09 02:34:19;;;;;;;;;;;;;;;19.90;40.15;102565.25;4963628;28;19918;-72
2023/04/09 02:36:44;;;;;;;;;;;;;;;19.90;39.98;102562.53;4974401;28;19974;-73
2023/04/09 02:39:09;;;;;;;;;;;;;;;19.88;40.24;102562.69;4958087;28;20012;-72
2023/04/09 02:41:35;;;;;;;;;;;;;;;19.88;40.19;102561.81;4969009;28;19918;-71
2023/04/09 02:44:00;;;;;;;;;;;;;;;19.87;40.19;102557.41;4966461;28;19910;-72
2023/04/09 02:46:25;;;;;;;;;;;;;;;19.87;40.08;102549.31;4963301;28;19921;-72
2023/04/09 02:48:50;;;;;;;;;;;;;;;19.85;40.12;102552.16;4974112;28;19921;-72
2023/04/09 02:51:15;;;;;;;;;;;;;;;19.84;40.23;102555.84;4962638;28;20295;-72
2023/04/09 02:53:41;;;;;;;;;;;;;;;19.84;40.25;102549.59;4970620;28;19910;-73
2023/04/09 02:56:06;;;;;;;;;;;;;;;19.82;40.19;102549.72;4966504;28;19970;-72
2023/04/09 02:58:31;;;;;;;;;;;;;;;19.81;40.22;102548.00;4969718;28;19954;-72
2023/04/09 03:00:56;;;;;;;;;;;;;;;19.81;40.20;102539.91;4961502;28;19914;-71
2023/04/09 03:03:21;;;;;;;;;;;;;;;19.80;40.10;102540.91;4974235;28;19914;-72
2023/04/09 03:05:46;;;;;;;;;;;;;;;19.80;40.06;102542.75;4961958;28;19914;-72
2023/04/09 03:08:12;;;;;;;;;;;;;;;19.79;40.06;102541.03;4967957;28;19926;-72
2023/04/09 03:10:37;;;;;;;;;;;;;;;19.77;40.24;102537.63;4970682;28;19934;-72
2023/04/09 03:13:02;;;;;;;;;;;;;;;19.76;40.28;102544.88;4959050;28;19961;-72
2023/04/09 03:15:27;;;;;;;;;;;;;;;19.75;40.16;102535.03;4974751;28;19910;-72
2023/04/09 03:17:52;;;;;;;;;;;;;;;19.73;40.32;102535.19;4961709;28;19976;-72
2023/04/09 03:20:17;;;;;;;;;;;;;;;19.73;40.28;102537.03;4965045;28;19914;-69
2023/04/09 03:22:43;;;;;;;;;;;;;;;19.72;40.24;102536.19;4970057;28;19925;-72
2023/04/09 03:25:08;;;;;;;;;;;;;;;19.71;39.98;102539.03;4967828;28;19914;-72
2023/04/09 03:27:33;;;;;;;;;;;;;;;19.70;40.20;102534.59;4963741;28;19952;-72
2023/04/09 03:29:59;;;;;;;;;;;;;;;19.70;40.12;102540.00;4970912;28;19910;-72
2023/04/09 03:32:24;;;;;;;;;;;;;;;19.68;40.26;102528.50;4965785;28;19911;-73
2023/04/09 03:34:49;;;;;;;;;;;;;;;19.68;40.37;102528.50;4962110;28;19910;-72
2023/04/09 03:37:14;;;;;;;;;;;;;;;19.67;40.29;102532.19;4973855;28;20315;-72
2023/04/09 03:39:39;;;;;;;;;;;;;;;19.67;40.29;102533.03;4958760;28;19914;-71
2023/04/09 03:42:05;;;;;;;;;;;;;;;19.67;40.18;102534.88;4972400;28;19946;-72
2023/04/09 03:44:30;;;;;;;;;;;;;;;19.67;40.16;102534.88;4968270;28;19911;-72
2023/04/09 03:46:55;;;;;;;;;;;;;;;19.66;40.00;102531.31;4963446;28;19915;-72
2023/04/09 03:49:20;;;;;;;;;;;;;;;19.67;40.03;102534.88;4970389;28;19938;-72
2023/04/09 03:51:45;;;;;;;;;;;;;;;19.66;40.10;102534.00;4965272;28;20396;-72
2023/04/09 03:54:11;;;;;;;;;;;;;;;19.66;40.03;102525.06;4965525;28;19911;-72
2023/04/09 03:56:36;;;;;;;;;;;;;;;19.67;40.10;102524.09;4968768;28;19914;-72
2023/04/09 03:59:01;;;;;;;;;;;;;;;19.67;40.07;102524.94;4977173;28;19918;-72
2023/04/09 04:01:26;;;;;;;;;;;;;;;19.68;40.18;102531.19;4959818;28;19914;-72
2023/04/09 04:03:51;;;;;;;;;;;;;;;19.67;40.20;102522.25;4975323;28;19922;-72
2023/04/09 04:06:16;;;;;;;;;;;;;;;19.68;40.21;102523.09;4961768;28;20034;-72
2023/04/09 04:08:43;;;;;;;;;;;;;;;19.69;40.01;102522.09;4965350;28;19922;-72
2023/04/09 04:11:08;;;;;;;;;;;;;;;19.70;39.94;102526.50;4969383;28;19910;-73
2023/04/09 04:13:33;;;;;;;;;;;;;;;19.71;39.94;102512.03;4961758;28;19910;-73
2023/04/09 04:15:59;;;;;;;;;;;;;;;19.71;39.97;102523.69;4968065;28;19939;-71
2023/04/09 04:18:24;;;;;;;;;;;;;;;19.72;39.82;102514.59;4964536;28;19914;-72
2023/04/09 04:20:49;;;;;;;;;;;;;;;19.73;39.93;102520.84;4965380;28;19910;-71
2023/04/09 04:23:14;;;;;;;;;;;;;;;19.74;39.87;102514.44;4966656;28;20356;-69
2023/04/09 04:25:40;;;;;;;;;;;;;;;19.75;39.99;102516.16;4969546;28;19914;-70
2023/04/09 04:28:06;;;;;;;;;;;;;;;19.76;39.99;102519.72;4959718;28;19965;-71
2023/04/09 04:30:31;;;;;;;;;;;;;;;19.78;39.59;102532.09;4973182;28;19910;-70
2023/04/09 04:32:56;;;;;;;;;;;;;;;19.79;39.87;102519.44;4965086;28;19914;-70
2023/04/09 04:35:21;;;;;;;;;;;;;;;19.80;39.67;102519.31;4958301;28;19921;-70
2023/04/09 04:37:48;;;;;;;;;;;;;;;19.82;39.56;102527.28;4972835;28;19919;-71
2023/04/09 04:40:13;;;;;;;;;;;;;;;19.82;39.48;102525.44;4959413;28;19925;-70
2023/04/09 04:42:38;;;;;;;;;;;;;;;19.83;39.48;102524.44;4969515;28;19973;-70
2023/04/09 04:45:04;;;;;;;;;;;;;;;19.85;39.65;102527.00;4964786;28;19922;-70
2023/04/09 04:47:29;;;;;;;;;;;;;;;19.86;39.62;102534.13;4964260;28;19994;-71
2023/04/09 04:49:54;;;;;;;;;;;;;;;19.87;39.60;102527.72;4965233;28;20006;-70
2023/04/09 04:52:19;;;;;;;;;;;;;;;19.88;39.53;102533.00;4967684;28;20202;-69
2023/04/09 04:54:45;;;;;;;;;;;;;;;19.90;39.85;102532.84;4967984;28;19918;-69
2023/04/09 04:57:10;;;;;;;;;;;;;;;19.90;39.85;102533.69;4967008;28;19923;-73
2023/04/09 04:59:39;;;;;;;;;;;;;;;19.91;39.66;102532.69;4966535;28;19917;-73
2023/04/09 05:02:04;;;;;;;;;;;;;;;19.92;39.91;102529.03;4964340;28;19910;-72
2023/04/09 05:04:29;;;;;;;;;;;;;;;19.94;39.83;102527.03;4964724;28;19914;-73
2023/04/09 05:06:55;;;;;;;;;;;;;;;19.95;39.75;102533.28;4963467;28;19911;-72
2023/04/09 05:09:20;;;;;;;;;;;;;;;19.97;39.94;102520.53;4966749;28;19921;-73
2023/04/09 05:11:45;;;;;;;;;;;;;;;19.98;39.93;102527.63;4967599;28;20582;-73
2023/04/09 05:14:11;;;;;;;;;;;;;;;19.99;39.84;102523.94;4966959;28;19949;-72
2023/04/09 05:16:37;;;;;;;;;;;;;;;20.01;39.68;102526.47;4969605;28;20526;-74
2023/04/09 05:19:02;;;;;;;;;;;;;;;20.02;39.65;102520.97;4967790;28;19941;-73
2023/04/09 05:21:27;;;;;;;;;;;;;;;20.05;39.88;102519.81;4966358;28;19914;-71
2023/04/09 05:23:53;;;;;;;;;;;;;;;20.06;39.72;102521.56;4966102;28;19919;-74
2023/04/09 05:26:18;;;;;;;;;;;;;;;20.08;39.60;102533.91;4967025;28;20370;-73
2023/04/09 05:28:43;;;;;;;;;;;;;;;20.10;39.67;102523.84;4942873;28;19918;-70
2023/04/09 05:31:11;;;;;;;;;;;;;;;20.12;39.98;102523.69;4975301;28;19910;-72
2023/04/09 05:33:37;;;;;;;;;;;;;;;20.13;40.12;102534.34;4963173;28;19914;-70
2023/04/09 05:36:02;;;;;;;;;;;;;;;20.14;40.02;102527.13;4959862;28;20383;-71
2023/04/09 05:38:27;;;;;;;;;;;;;;;20.19;40.34;102530.25;4970828;28;19925;-71
2023/04/09 05:40:52;;;;;;;;;;;;;;;20.20;40.10;102526.56;4965926;28;20032;-70
2023/04/09 05:43:18;;;;;;;;;;;;;;;20.21;40.25;102526.41;4969071;28;19910;-70
2023/04/09 05:45:43;;;;;;;;;;;;;;;20.23;40.12;102531.69;4968459;28;20001;-70
2023/04/09 05:48:08;;;;;;;;;;;;;;;20.25;40.38;102529.69;4967373;28;19922;-69
2023/04/09 05:50:33;;;;;;;;;;;;;;;20.28;40.30;102532.13;4970739;28;19946;-70
2023/04/09 05:52:58;;;;;;;;;;;;;;;20.29;40.10;102536.53;4969831;28;19946;-69
2023/04/09 05:55:24;;;;;;;;;;;;;;;20.31;40.17;102528.31;4967964;28;19914;-69
2023/04/09 05:57:51;;;;;;;;;;;;;;;20.33;40.13;102537.09;4969289;28;19917;-69
2023/04/09 06:00:17;;;;;;;;;;;;;;;20.34;39.97;102536.09;4967036;28;19953;-69
2023/04/09 06:02:42;;;;;;;;;;;;;;;20.36;39.94;102540.41;4967842;28;19925;-70
2023/04/09 06:05:07;;;;;;;;;;;;;;;20.38;40.01;102534.84;4971010;28;19949;-71
2023/04/09 06:07:32;;;;;;;;;;;;;;;20.40;39.93;102541.81;4968283;28;19910;-69
2023/04/09 06:09:58;;;;;;;;;;;;;;;20.42;40.24;102550.63;4970579;28;20440;-71
2023/04/09 06:12:23;;;;;;;;;;;;;;;20.43;40.14;102538.84;4971901;28;19914;-68
2023/04/09 06:14:48;;;;;;;;;;;;;;;20.45;39.93;102542.25;4970722;28;19910;-70
2023/04/09 06:17:13;;;;;;;;;;;;;;;20.47;40.12;102529.47;4970592;28;19918;-69
2023/04/09 06:19:38;;;;;;;;;;;;;;;20.50;40.13;102527.50;4971462;28;19910;-70
2023/04/09 06:22:04;;;;;;;;;;;;;;;20.51;40.16;102531.91;4967490;28;19916;-70
2023/04/09 06:24:30;;;;;;;;;;;;;;;20.53;39.86;102532.66;4964118;28;19915;-69
2023/04/09 06:26:55;;;;;;;;;;;;;;;20.54;39.78;102537.03;4970910;28;19965;-71
2023/04/09 06:29:20;;;;;;;;;;;;;;;20.55;39.97;102531.50;4965044;28;19914;-69
2023/04/09 06:31:46;;;;;;;;;;;;;;;20.57;40.01;102536.78;4972934;28;19917;-70
2023/04/09 06:34:11;;;;;;;;;;;;;;;20.58;39.85;102531.22;4969207;28;19950;-70
2023/04/09 06:36:36;;;;;;;;;;;;;;;20.59;40.04;102542.88;4968838;28;19933;-70
2023/04/09 06:39:01;;;;;;;;;;;;;;;20.61;40.00;102532.78;4972664;28;19952;-70
2023/04/09 06:41:27;;;;;;;;;;;;;;;20.62;39.96;102538.06;4971531;28;19949;-69
2023/04/09 06:43:53;;;;;;;;;;;;;;;20.64;39.80;102540.59;4972694;28;19918;-70
2023/04/09 06:46:20;;;;;;;;;;;;;;;20.66;39.78;102538.63;4970368;28;19948;-69
2023/04/09 06:48:45;;;;;;;;;;;;;;;20.67;39.80;102538.47;4963459;28;20260;-65
2023/04/09 06:51:10;;;;;;;;;;;;;;;20.69;39.93;102541.06;4962417;28;19914;-69
2023/04/09 06:53:36;;;;;;;;;;;;;;;20.70;39.88;102538.19;4976264;28;19945;-69
2023/04/09 06:56:01;;;;;;;;;;;;;;;20.71;39.70;102537.19;4959929;28;19915;-69
2023/04/09 06:58:27;;;;;;;;;;;;;;;20.72;39.47;102536.19;4972912;28;19914;-69
2023/04/09 07:00:52;;;;;;;;;;;;;;;20.74;39.67;102541.47;4969341;28;19925;-68
2023/04/09 07:03:17;;;;;;;;;;;;;;;20.76;39.63;102549.44;4960639;28;19915;-69
2023/04/09 07:05:42;;;;;;;;;;;;;;;20.77;39.45;102548.44;4971480;28;19918;-69
2023/04/09 07:08:08;;;;;;;;;;;;;;;20.79;39.30;102551.88;4961821;28;20315;-69
2023/04/09 07:10:33;;;;;;;;;;;;;;;20.79;39.22;102547.31;4964332;28;19910;-68
2023/04/09 07:12:58;;;;;;;;;;;;;;;20.81;39.10;102550.72;4969118;28;20352;-68
2023/04/09 07:15:23;;;;;;;;;;;;;;;20.82;39.08;102541.63;4969376;28;20505;-69
2023/04/09 07:17:48;;;;;;;;;;;;;;;20.84;39.24;102547.75;4961549;28;19914;-70
2023/04/09 07:20:13;;;;;;;;;;;;;;;20.85;39.14;102548.59;4972343;28;19985;-70
2023/04/09 07:22:39;;;;;;;;;;;;;;;20.87;39.21;102555.56;4961871;28;20050;-70
2023/04/09 07:25:04;;;;;;;;;;;;;;;20.88;39.10;102559.97;4961655;28;20150;-71
2023/04/09 07:27:29;;;;;;;;;;;;;;;20.89;38.99;102558.13;4968791;28;19915;-71
2023/04/09 07:29:55;;;;;;;;;;;;;;;20.90;38.81;102554.44;4956670;28;19918;-71
2023/04/09 07:32:21;;;;;;;;;;;;;;;20.91;38.72;102556.16;4971533;28;19914;-71
2023/04/09 07:34:46;;;;;;;;;;;;;;;20.93;38.73;102555.00;4964048;28;19919;-71
2023/04/09 07:37:11;;;;;;;;;;;;;;;20.94;38.86;102558.53;4966262;28;20013;-68
2023/04/09 07:39:37;;;;;;;;;;;;;;;20.95;38.60;102555.72;4966302;28;19986;-68
2023/04/09 07:42:03;;;;;;;;;;;;;;;20.96;38.41;102545.75;4968243;28;19961;-68
2023/04/09 07:44:28;;;;;;;;;;;;;;;20.97;38.72;102548.31;4961566;28;19911;-67
2023/04/09 07:46:53;;;;;;;;;;;;;;;20.99;38.75;102550.03;4966394;28;19921;-68
2023/04/09 07:49:18;;;;;;;;;;;;;;;21.00;38.56;102544.47;4967245;28;19918;-68
2023/04/09 07:51:44;;;;;;;;;;;;;;;21.02;38.47;102547.88;4959608;28;19917;-74
2023/04/09 07:54:09;;;;;;;;;;;;;;;21.03;38.74;102549.59;4972889;28;19921;-73
2023/04/09 07:56:34;;;;;;;;;;;;;;;21.04;38.72;102554.00;4963049;28;19910;-72
2023/04/09 07:58:59;;;;;;;;;;;;;;;21.05;38.69;102550.31;4967751;28;20577;-72
2023/04/09 08:01:25;;;;;;;;;;;;;;;21.09;38.36;102556.28;4965337;28;19921;-71
2023/04/09 08:03:50;;;;;;;;;;;;;;;21.10;38.58;102552.56;4962451;28;19914;-72
2023/04/09 08:06:15;;;;;;;;;;;;;;;21.11;38.08;102548.88;4975672;28;19977;-72
2023/04/09 08:08:41;;;;;;;;;;;;;;;21.12;38.18;102559.56;4966984;28;20020;-72
2023/04/09 08:11:06;;;;;;;;;;;;;;;21.14;38.38;102557.56;4966202;28;19918;-72
2023/04/09 08:13:32;;;;;;;;;;;;;;;21.16;38.26;102560.13;4963923;28;19966;-73
2023/04/09 08:15:59;;;;;;;;;;;;;;;21.17;38.34;102556.41;4968952;28;19914;-72
2023/04/09 08:18:24;;;;;;;;;;;;;;;21.19;38.12;102554.41;4956871;28;19918;-73
2023/04/09 08:20:50;;;;;;;;;;;;;;;21.21;38.17;102552.44;4972253;28;19910;-70
2023/04/09 08:23:15;;;;;;;;;;;;;;;21.22;38.30;102546.00;4968330;28;19934;-71
2023/04/09 08:25:40;;;;;;;;;;;;;;;21.23;38.41;102545.84;4970481;28;20306;-72
2023/04/09 08:28:05;;;;;;;;;;;;;;;21.27;38.07;102551.00;4971439;28;19921;-72
2023/04/09 08:30:32;;;;;;;;;;;;;;;21.27;38.14;102546.44;4965324;28;19925;-71
2023/04/09 08:32:58;;;;;;;;;;;;;;;21.29;38.31;102546.31;4972029;28;19918;-72
2023/04/09 08:35:23;;;;;;;;;;;;;;;21.30;38.32;102538.03;4963226;28;19922;-71
2023/04/09 08:37:48;;;;;;;;;;;;;;;21.32;38.01;102544.16;4966728;28;19919;-72
2023/04/09 08:40:13;;;;;;;;;;;;;;;21.34;38.21;102547.59;4967513;28;19934;-71
2023/04/09 08:42:40;;;;;;;;;;;;;;;21.36;38.17;102547.44;4970158;28;19914;-72
2023/04/09 08:45:06;;;;;;;;;;;;;;;21.38;38.14;102545.47;4964698;28;19954;-72
2023/04/09 08:47:31;;;;;;;;;;;;;;;21.40;37.90;102548.88;4970462;28;19917;-72
2023/04/09 08:49:56;;;;;;;;;;;;;;;21.40;37.84;102552.41;4969498;28;19941;-72
2023/04/09 08:52:29;;;;;;;;;;;;;;;21.42;37.88;102552.28;4957202;28;19919;-72
2023/04/09 08:54:55;;;;;;;;;;;;;;;21.43;37.89;102554.84;4966393;28;20375;-70
2023/04/09 08:57:20;;;;;;;;;;;;;;;21.43;38.19;102549.44;4964190;28;19926;-72
2023/04/09 08:59:45;;;;;;;;;;;;;;;21.45;38.15;102550.16;4969128;28;19910;-71
2023/04/09 09:02:10;;;;;;;;;;;;;;;21.46;37.99;102540.19;4966332;28;19919;-74
2023/04/09 09:04:48;;;;;;;;;;;;;;;21.48;37.83;102540.88;4966976;28;19914;-73
2023/04/09 09:07:14;;;;;;;;;;;;;;;21.50;37.90;102541.59;4964151;28;19918;-73
2023/04/09 09:09:49;;;;;;;;;;;;;;;21.51;37.80;102537.03;4967893;28;19919;-70
2023/04/09 09:12:28;;;;;;;;;;;;;;;21.53;37.92;102532.31;4960066;28;19918;-73
2023/04/09 09:14:54;;;;;;;;;;;;;;;21.54;37.84;102529.47;4970048;28;19974;-73
2023/04/09 09:17:19;;;;;;;;;;;;;;;21.57;37.73;102531.03;4961204;28;19922;-73
2023/04/09 09:19:44;;;;;;;;;;;;;;;21.58;38.03;102536.31;4955492;28;19958;-72
2023/04/09 09:22:12;;;;;;;;;;;;;;;21.60;37.67;102533.44;4967782;28;20394;-72
2023/04/09 09:24:50;;;;;;;;;;;;;;;21.61;37.75;102536.00;4962944;28;19921;-73
2023/04/09 09:27:35;;;;;;;;;;;;;;;21.63;37.99;102533.16;4971064;28;19918;-72
2023/04/09 09:30:00;;;;;;;;;;;;;;;21.67;38.03;102539.97;4965070;28;19990;-73
2023/04/09 09:32:26;;;;;;;;;;;;;;;21.71;37.91;102531.41;4967179;28;20330;-69
2023/04/09 09:35:00;;;;;;;;;;;;;;;21.74;37.94;102530.25;4969705;28;19942;-72
2023/04/09 09:37:29;;;;;;;;;;;;;;;21.77;37.86;102523.69;4968530;28;19983;-72
2023/04/09 09:39:54;;;;;;;;;;;;;;;21.80;37.72;102521.56;4959697;28;19911;-72
2023/04/09 09:42:20;;;;;;;;;;;;;;;21.82;37.65;102519.53;4967393;28;19960;-71
2023/04/09 09:44:45;;;;;;;;;;;;;;;21.84;37.52;102520.25;4968856;28;19978;-69
2023/04/09 09:47:12;;;;;;;;;;;;;;;21.86;37.81;102512.81;4971963;28;19937;-71
2023/04/09 09:49:37;;;;;;;;;;;;;;;21.88;37.65;102516.25;4976140;28;19919;-70
2023/04/09 09:52:02;;;;;;;;;;;;;;;21.91;37.71;102513.22;4959656;28;19918;-70
2023/04/09 09:54:27;;;;;;;;;;;;;;;21.93;38.00;102518.50;4976989;28;20401;-70
2023/04/09 09:56:54;;;;;;;;;;;;;;;21.94;38.06;102515.63;4972176;28;20367;-70
2023/04/09 09:59:23;;;;;;;;;;;;;;;21.92;38.34;102511.38;4964572;28;19973;-71
2023/04/09 10:01:55;;;;;;;;;;;;;;;21.96;38.02;102513.66;4969322;28;20020;-69
2023/04/09 10:04:21;;;;;;;;;;;;;;;21.94;38.34;102517.50;4968498;28;19918;-71
2023/04/09 10:06:46;;;;;;;;;;;;;;;21.91;38.66;102507.78;4969035;28;19929;-71
2023/04/09 10:09:11;;;;;;;;;;;;;;;21.89;38.54;102506.25;4972460;28;19920;-72
2023/04/09 10:11:36;;;;;;;;;;;;;;;21.90;38.61;102503.38;4972901;28;19918;-72
2023/04/09 10:14:02;;;;;;;;;;;;;;;21.89;38.91;102506.25;4966434;28;19926;-72
2023/04/09 10:16:28;;;;;;;;;;;;;;;21.87;38.68;102505.53;4969830;28;20393;-71
2023/04/09 10:18:56;;;;;;;;;;;;;;;21.83;38.89;102504.97;4965621;28;19914;-70
2023/04/09 10:21:27;;;;;;;;;;;;;;;21.80;39.01;102497.19;4969024;28;19910;-70
2023/04/09 10:23:52;;;;;;;;;;;;;;;21.78;38.75;102493.75;4967877;28;19910;-70
2023/04/09 10:26:18;;;;;;;;;;;;;;;21.80;39.07;102490.91;4968169;28;19964;-73
2023/04/09 10:28:43;;;;;;;;;;;;;;;21.78;39.08;102485.63;4970023;28;19973;-72
2023/04/09 10:31:09;;;;;;;;;;;;;;;21.79;38.71;102484.66;4972232;28;19937;-73
2023/04/09 10:33:37;;;;;;;;;;;;;;;21.78;38.80;102479.38;4966369;28;19934;-73
2023/04/09 10:36:03;;;;;;;;;;;;;;;21.79;38.77;102478.34;4964408;28;19918;-73
2023/04/09 10:38:35;;;;;;;;;;;;;;;21.78;39.06;102472.09;4972396;28;19918;-73
2023/04/09 10:41:21;;;;;;;;;;;;;;;21.78;38.79;102479.38;4960049;28;19914;-73
2023/04/09 10:43:46;;;;;;;;;;;;;;;21.80;38.94;102470.09;4975108;28;20285;-73
2023/04/09 10:46:44;;;;;;;;;;;;;;;21.81;39.05;102477.22;4962503;28;20352;-73
2023/04/09 10:49:19;;;;;;;;;;;;;;;21.82;38.92;102470.78;4973992;28;19933;-72
2023/04/09 10:52:00;;;;;;;;;;;;;;;21.85;38.68;102464.25;4967876;28;19914;-73
2023/04/09 10:54:36;;;;;;;;;;;;;;;21.91;38.49;102466.31;4971468;28;19910;-71
2023/04/09 10:57:10;;;;;;;;;;;;;;;21.95;38.56;102465.88;4966415;28;19921;-70
2023/04/09 10:59:36;;;;;;;;;;;;;;;21.96;38.55;102459.47;4964201;28;20406;-74
2023/04/09 11:02:01;;;;;;;;;;;;;;;21.91;38.75;102461.75;4965244;28;20444;-74
2023/04/09 11:04:34;;;;;;;;;;;;;;;21.88;38.79;102461.25;4968779;28;19921;-74
2023/04/09 11:07:00;;;;;;;;;;;;;;;21.81;38.83;102455.56;4968576;28;19911;-74
2023/04/09 11:09:26;;;;;;;;;;;;;;;21.79;38.97;102457.56;4964620;28;19960;-73
2023/04/09 11:11:52;;;;;;;;;;;;;;;21.78;38.73;102446.88;4971837;28;19941;-73
2023/04/09 11:14:20;;;;;;;;;;;;;;;21.75;39.05;102439.06;4953732;28;19937;-73
2023/04/09 11:16:48;;;;;;;;;;;;;;;21.73;39.10;102446.47;4977562;28;19961;-73
2023/04/09 11:19:13;;;;;;;;;;;;;;;21.71;39.10;102450.19;4965168;28;19953;-69
2023/04/09 11:21:44;;;;;;;;;;;;;;;21.69;39.05;102441.34;4965104;28;19965;-74
2023/04/09 11:24:10;;;;;;;;;;;;;;;21.68;39.25;102442.38;4972544;28;19910;-73
2023/04/09 11:26:36;;;;;;;;;;;;;;;21.69;39.43;102437.81;4964613;28;19915;-73
2023/04/09 11:29:06;;;;;;;;;;;;;;;21.68;39.58;102438.81;4966435;28;19964;-74
2023/04/09 11:31:31;;;;;;;;;;;;;;;21.67;39.42;102432.56;4967599;28;19910;-73
2023/04/09 11:33:56;;;;;;;;;;;;;;;21.69;39.70;102432.38;4965155;28;19918;-73
2023/04/09 11:36:21;;;;;;;;;;;;;;;21.65;39.72;102426.41;4968459;28;20852;-73
2023/04/09 11:38:47;;;;;;;;;;;;;;;21.67;39.81;102429.00;4975505;28;19950;-73
2023/04/09 11:41:13;;;;;;;;;;;;;;;21.64;39.57;102432.84;4957927;28;20361;-73
2023/04/09 11:43:38;;;;;;;;;;;;;;;21.65;39.96;102425.56;4972019;28;19934;-73
2023/04/09 11:46:03;;;;;;;;;;;;;;;21.66;39.70;102436.28;4965144;28;20380;-74
2023/04/09 11:48:29;;;;;;;;;;;;;;;21.66;39.75;102428.16;4958980;28;19914;-74
2023/04/09 11:50:54;;;;;;;;;;;;;;;21.68;40.00;102419.88;4972551;28;19921;-74
2023/04/09 11:53:20;;;;;;;;;;;;;;;21.67;39.86;102424.44;4968892;28;20716;-74
2023/04/09 11:55:49;;;;;;;;;;;;;;;21.67;40.10;102421.72;4964838;28;20001;-74
2023/04/09 11:58:15;;;;;;;;;;;;;;;21.66;40.14;102422.72;4965270;28;19910;-72
2023/04/09 12:00:40;;;;;;;;;;;;;;;21.69;40.12;102421.56;4968605;28;19941;-73
2023/04/09 12:03:05;;;;;;;;;;;;;;;21.68;40.32;102415.31;4958679;28;19921;-74
2023/04/09 12:05:31;;;;;;;;;;;;;;;21.69;40.19;102414.28;4971296;28;19910;-74
2023/04/09 12:08:06;;;;;;;;;;;;;;;21.73;40.13;102419.41;5088361;27;20365;-73
2023/04/09 12:10:32;;;;;;;;;;;;;;;21.72;40.18;102415.84;5091797;28;19959;-73
2023/04/09 12:13:16;;;;;;;;;;;;;;;21.73;40.18;102422.13;5092154;28;19916;-73
2023/04/09 12:15:42;;;;;;;;;;;;;;;21.74;40.45;102421.97;5094681;28;19913;-72
2023/04/09 12:18:08;;;;;;;;;;;;;;;21.74;40.43;102416.53;5121466;28;19916;-73
2023/04/09 12:20:34;;;;;;;;;;;;;;;21.74;40.21;102415.69;5087461;28;19923;-73
2023/04/09 12:23:00;;;;;;;;;;;;;;;21.75;40.42;102420.09;5088178;28;19920;-73
2023/04/09 12:25:26;;;;;;;;;;;;;;;21.76;40.46;102421.81;5085157;28;19917;-73
2023/04/09 12:27:51;;;;;;;;;;;;;;;21.76;40.32;102419.13;5091439;28;19917;-73
2023/04/09 12:30:16;;;;;;;;;;;;;;;21.76;40.69;102419.97;5086007;28;20273;-73
2023/04/09 12:32:43;;;;;;;;;;;;;;;21.78;40.69;102411.69;5090091;28;19913;-73